KCRP/CRP METAR and TAF weather

Enter ICAO airport designator
Station Type Date Time Source
KCRP METAR 2020/01/23 20:51 UTC NOAA

KCRP 232051Z 36012KT 10SM FEW028 FEW250 24/13 A2994 RMK AO2 SLP137 T02440128 56017


Station Type Date Time Source
KCRP Decoded METAR 2020/01/23 20:51 UTC NOAA

CORPUS CHRISTI INTERNATIONAL , TX, United States (KCRP) 27-46N 97-31W 16M
Jan 23, 2020 - 03:51 PM EST / 2020.01.23 2051 UTC
Wind: from the N (360 degrees) at 14 MPH (12 KT):0
Visibility: 10 mile(s):0
Sky conditions: mostly clear
Temperature: 75.9 F (24.4 C)
Dew Point: 55.0 F (12.8 C)
Relative Humidity: 48%
Pressure (altimeter): 29.94 in. Hg (1013 hPa)
Pressure tendency: 0.05 inches (1.7 hPa) lower than three hours ago
ob: KCRP 232051Z 36012KT 10SM FEW028 FEW250 24/13 A2994 RMK AO2 SLP137 T02440128 56017
cycle: 21

Station Type Date Time Source
KCRP TAF 2020/01/23 18:22 UTC NOAA

TAF KCRP 231720Z 2318/2418 32010KT P6SM SKC
FM240200 02008KT P6SM SKC

Example: see airport list